Stanley, Colorado
Current Conditions -  °F | °C
As of 4:52 PM on Tuesday 25 Nov 2014 (Local Time) from KALS Reporting Station
Clear Clear  
Wind Chill: 19°   Ceiling: Unl
Heat Index: 27°   Visibility: 10mi
Dew Point:   Wind: 7mph
Humidity: 39%   Direction: 110°ESE
Pressure: 30.19"   Gusts: NA
Location:  37.469°N, 105.836°W
Report Text: KALS 252352Z AUTO 11006KT 10SM CLR M03/M15 A3019 RMK AO2 SLP278 T10281150 10022 21028 55001
Loading
Personal Weather Stations






























Interactive Weather Map New forecast layout! Learn more

10-Day Weather Forecast

Advertisements
Track Severe Weather on mobile